Terminal Aerodrome Forecast
Issued by NWS Charleston, WV

Current Version | Previous Version | Graphics & Text | Print | Product List | Glossary On
Versions: 1 2 3 4 5 6 7 8 9 10 11 12 13 14 15 16 17 18 19 20 21
000
FTUS41 KRLX 172332
TAFBKW
TAF
KBKW 172332Z 1800/1824 20004KT P6SM SCT040 BKN080
     FM180100 20004KT P6SM SCT250
     FM180800 23004KT P6SM BKN035
     FM181400 25005KT P6SM VCTS BKN015CB
     FM181600 25006KT P6SM VCTS BKN020CB
     FM181900 26006KT P6SM SCT025
     FM182100 27006KT P6SM SCT035=

USA.gov is the U.S. government's official web portal to all federal, state and local government web resources and services.